sensor_id;sensor_type;location;lat;lon;timestamp;P1;durP1;ratioP1;P2;durP2;ratioP2
60610;SDS011;46439;51.164;13.572;2023-06-14T00:01:03;3.10;;;2.30;;
60610;SDS011;46439;51.164;13.572;2023-06-14T00:03:33;3.90;;;2.30;;
60610;SDS011;46439;51.164;13.572;2023-06-14T00:06:01;6.90;;;2.10;;
60610;SDS011;46439;51.164;13.572;2023-06-14T00:08:30;3.50;;;2.40;;
60610;SDS011;46439;51.164;13.572;2023-06-14T00:10:58;2.60;;;2.10;;
60610;SDS011;46439;51.164;13.572;2023-06-14T00:13:27;5.90;;;2.70;;
60610;SDS011;46439;51.164;13.572;2023-06-14T00:15:56;3.50;;;2.30;;
60610;SDS011;46439;51.164;13.572;2023-06-14T00:18:24;5.30;;;2.30;;
60610;SDS011;46439;51.164;13.572;2023-06-14T00:20:57;4.30;;;2.40;;
60610;SDS011;46439;51.164;13.572;2023-06-14T00:23:26;2.70;;;2.30;;
60610;SDS011;46439;51.164;13.572;2023-06-14T00:25:55;2.90;;;2.10;;
60610;SDS011;46439;51.164;13.572;2023-06-14T00:28:23;2.40;;;2.20;;
60610;SDS011;46439;51.164;13.572;2023-06-14T00:30:51;3.70;;;2.30;;
60610;SDS011;46439;51.164;13.572;2023-06-14T00:33:20;2.70;;;2.00;;
60610;SDS011;46439;51.164;13.572;2023-06-14T00:35:48;3.00;;;2.30;;
60610;SDS011;46439;51.164;13.572;2023-06-14T00:38:17;3.00;;;2.30;;
60610;SDS011;46439;51.164;13.572;2023-06-14T00:40:46;2.70;;;2.20;;
60610;SDS011;46439;51.164;13.572;2023-06-14T00:43:15;3.10;;;2.10;;
60610;SDS011;46439;51.164;13.572;2023-06-14T00:45:43;2.40;;;2.20;;
60610;SDS011;46439;51.164;13.572;2023-06-14T00:48:12;4.90;;;2.30;;
60610;SDS011;46439;51.164;13.572;2023-06-14T00:50:42;2.30;;;2.10;;
60610;SDS011;46439;51.164;13.572;2023-06-14T00:53:12;5.70;;;2.30;;
60610;SDS011;46439;51.164;13.572;2023-06-14T00:55:42;3.80;;;2.20;;
60610;SDS011;46439;51.164;13.572;2023-06-14T00:58:10;3.30;;;2.20;;
60610;SDS011;46439;51.164;13.572;2023-06-14T01:00:39;3.80;;;2.10;;
60610;SDS011;46439;51.164;13.572;2023-06-14T01:03:07;5.70;;;2.40;;
60610;SDS011;46439;51.164;13.572;2023-06-14T01:05:40;4.50;;;2.60;;
60610;SDS011;46439;51.164;13.572;2023-06-14T01:08:14;3.60;;;2.40;;
60610;SDS011;46439;51.164;13.572;2023-06-14T01:11:02;2.70;;;2.20;;
60610;SDS011;46439;51.164;13.572;2023-06-14T01:13:39;3.50;;;2.30;;
60610;SDS011;46439;51.164;13.572;2023-06-14T01:16:10;3.10;;;2.50;;
60610;SDS011;46439;51.164;13.572;2023-06-14T01:18:39;4.00;;;2.40;;
60610;SDS011;46439;51.164;13.572;2023-06-14T01:21:21;5.10;;;2.30;;
60610;SDS011;46439;51.164;13.572;2023-06-14T01:23:51;3.20;;;2.30;;
60610;SDS011;46439;51.164;13.572;2023-06-14T01:26:20;3.90;;;2.50;;
60610;SDS011;46439;51.164;13.572;2023-06-14T01:28:49;5.00;;;2.70;;
60610;SDS011;46439;51.164;13.572;2023-06-14T01:31:23;4.60;;;2.60;;
60610;SDS011;46439;51.164;13.572;2023-06-14T01:33:52;6.20;;;2.70;;
60610;SDS011;46439;51.164;13.572;2023-06-14T01:36:22;3.90;;;2.50;;
60610;SDS011;46439;51.164;13.572;2023-06-14T01:41:23;3.30;;;2.30;;
60610;SDS011;46439;51.164;13.572;2023-06-14T01:43:53;2.80;;;2.30;;
60610;SDS011;46439;51.164;13.572;2023-06-14T01:46:23;3.20;;;2.50;;
60610;SDS011;46439;51.164;13.572;2023-06-14T01:48:51;5.80;;;2.60;;
60610;SDS011;46439;51.164;13.572;2023-06-14T01:51:20;3.10;;;2.40;;
60610;SDS011;46439;51.164;13.572;2023-06-14T01:53:48;5.80;;;2.50;;
60610;SDS011;46439;51.164;13.572;2023-06-14T01:56:17;3.20;;;2.40;;
60610;SDS011;46439;51.164;13.572;2023-06-14T01:58:46;4.20;;;2.70;;
60610;SDS011;46439;51.164;13.572;2023-06-14T02:01:15;3.40;;;2.50;;
60610;SDS011;46439;51.164;13.572;2023-06-14T02:03:43;4.00;;;2.60;;
60610;SDS011;46439;51.164;13.572;2023-06-14T02:06:13;3.40;;;2.60;;
60610;SDS011;46439;51.164;13.572;2023-06-14T02:08:42;3.40;;;2.50;;
60610;SDS011;46439;51.164;13.572;2023-06-14T02:11:11;4.30;;;2.40;;
60610;SDS011;46439;51.164;13.572;2023-06-14T02:13:39;2.60;;;2.40;;
60610;SDS011;46439;51.164;13.572;2023-06-14T02:16:08;2.80;;;2.40;;
60610;SDS011;46439;51.164;13.572;2023-06-14T02:18:37;4.80;;;2.60;;
60610;SDS011;46439;51.164;13.572;2023-06-14T02:21:05;6.30;;;2.50;;
60610;SDS011;46439;51.164;13.572;2023-06-14T02:23:34;5.70;;;2.90;;
60610;SDS011;46439;51.164;13.572;2023-06-14T02:26:02;4.90;;;2.70;;
60610;SDS011;46439;51.164;13.572;2023-06-14T02:28:31;5.80;;;2.50;;
60610;SDS011;46439;51.164;13.572;2023-06-14T02:30:59;2.90;;;2.60;;
60610;SDS011;46439;51.164;13.572;2023-06-14T02:33:28;2.60;;;2.40;;
60610;SDS011;46439;51.164;13.572;2023-06-14T02:35:56;4.00;;;2.40;;
60610;SDS011;46439;51.164;13.572;2023-06-14T02:38:25;4.90;;;2.50;;
60610;SDS011;46439;51.164;13.572;2023-06-14T02:40:54;5.70;;;2.40;;
60610;SDS011;46439;51.164;13.572;2023-06-14T02:43:22;4.10;;;2.60;;
60610;SDS011;46439;51.164;13.572;2023-06-14T02:45:51;4.90;;;2.70;;
60610;SDS011;46439;51.164;13.572;2023-06-14T02:48:19;5.30;;;2.70;;
60610;SDS011;46439;51.164;13.572;2023-06-14T02:50:47;5.20;;;2.60;;
60610;SDS011;46439;51.164;13.572;2023-06-14T02:53:16;3.20;;;2.60;;
60610;SDS011;46439;51.164;13.572;2023-06-14T02:55:45;3.50;;;2.60;;
60610;SDS011;46439;51.164;13.572;2023-06-14T02:58:15;2.90;;;2.40;;
60610;SDS011;46439;51.164;13.572;2023-06-14T03:00:44;4.70;;;2.60;;
60610;SDS011;46439;51.164;13.572;2023-06-14T03:03:13;5.80;;;2.80;;
60610;SDS011;46439;51.164;13.572;2023-06-14T03:05:43;2.90;;;2.50;;
60610;SDS011;46439;51.164;13.572;2023-06-14T03:08:14;4.30;;;2.70;;
60610;SDS011;46439;51.164;13.572;2023-06-14T03:10:46;3.60;;;2.70;;
60610;SDS011;46439;51.164;13.572;2023-06-14T03:13:15;3.00;;;2.60;;
60610;SDS011;46439;51.164;13.572;2023-06-14T03:15:47;2.80;;;2.50;;
60610;SDS011;46439;51.164;13.572;2023-06-14T03:18:19;4.00;;;2.60;;
60610;SDS011;46439;51.164;13.572;2023-06-14T03:20:49;7.00;;;2.90;;
60610;SDS011;46439;51.164;13.572;2023-06-14T03:23:18;4.10;;;2.70;;
60610;SDS011;46439;51.164;13.572;2023-06-14T03:25:48;7.60;;;3.00;;
60610;SDS011;46439;51.164;13.572;2023-06-14T03:28:16;6.40;;;3.20;;
60610;SDS011;46439;51.164;13.572;2023-06-14T03:30:45;5.50;;;2.80;;
60610;SDS011;46439;51.164;13.572;2023-06-14T03:33:14;5.60;;;2.80;;
60610;SDS011;46439;51.164;13.572;2023-06-14T03:35:43;3.60;;;3.10;;
60610;SDS011;46439;51.164;13.572;2023-06-14T03:38:12;4.30;;;2.80;;
60610;SDS011;46439;51.164;13.572;2023-06-14T03:40:40;5.60;;;2.80;;
60610;SDS011;46439;51.164;13.572;2023-06-14T03:43:09;4.50;;;2.90;;
60610;SDS011;46439;51.164;13.572;2023-06-14T03:45:38;3.60;;;3.00;;
60610;SDS011;46439;51.164;13.572;2023-06-14T03:48:06;4.00;;;2.70;;
60610;SDS011;46439;51.164;13.572;2023-06-14T03:50:36;4.40;;;3.10;;
60610;SDS011;46439;51.164;13.572;2023-06-14T03:53:05;4.30;;;2.90;;
60610;SDS011;46439;51.164;13.572;2023-06-14T03:55:34;4.10;;;2.80;;
60610;SDS011;46439;51.164;13.572;2023-06-14T03:58:04;6.70;;;3.10;;
60610;SDS011;46439;51.164;13.572;2023-06-14T04:00:33;9.90;;;3.60;;
60610;SDS011;46439;51.164;13.572;2023-06-14T04:03:02;3.20;;;2.80;;
60610;SDS011;46439;51.164;13.572;2023-06-14T04:05:32;6.70;;;3.20;;
60610;SDS011;46439;51.164;13.572;2023-06-14T04:08:01;5.00;;;3.30;;
60610;SDS011;46439;51.164;13.572;2023-06-14T04:10:29;3.40;;;2.80;;
60610;SDS011;46439;51.164;13.572;2023-06-14T04:12:58;4.80;;;3.40;;
60610;SDS011;46439;51.164;13.572;2023-06-14T04:15:27;3.30;;;3.00;;
60610;SDS011;46439;51.164;13.572;2023-06-14T04:17:55;5.60;;;3.20;;
60610;SDS011;46439;51.164;13.572;2023-06-14T04:20:24;4.90;;;3.50;;
60610;SDS011;46439;51.164;13.572;2023-06-14T04:22:53;4.40;;;3.20;;
60610;SDS011;46439;51.164;13.572;2023-06-14T04:25:23;6.60;;;3.10;;
60610;SDS011;46439;51.164;13.572;2023-06-14T04:27:52;4.90;;;3.00;;
60610;SDS011;46439;51.164;13.572;2023-06-14T04:30:21;6.40;;;3.30;;
60610;SDS011;46439;51.164;13.572;2023-06-14T04:32:52;4.40;;;3.40;;
60610;SDS011;46439;51.164;13.572;2023-06-14T04:35:22;3.40;;;3.10;;
60610;SDS011;46439;51.164;13.572;2023-06-14T04:37:52;3.60;;;3.10;;
60610;SDS011;46439;51.164;13.572;2023-06-14T04:40:20;5.10;;;3.10;;
60610;SDS011;46439;51.164;13.572;2023-06-14T04:42:49;4.60;;;3.20;;
60610;SDS011;46439;51.164;13.572;2023-06-14T04:45:17;4.20;;;3.40;;
60610;SDS011;46439;51.164;13.572;2023-06-14T04:47:46;3.70;;;3.10;;
60610;SDS011;46439;51.164;13.572;2023-06-14T04:50:14;4.10;;;3.30;;
60610;SDS011;46439;51.164;13.572;2023-06-14T04:52:43;3.80;;;3.00;;
60610;SDS011;46439;51.164;13.572;2023-06-14T04:55:12;6.10;;;3.30;;
60610;SDS011;46439;51.164;13.572;2023-06-14T04:57:40;5.30;;;3.10;;
60610;SDS011;46439;51.164;13.572;2023-06-14T05:00:10;6.40;;;3.20;;
60610;SDS011;46439;51.164;13.572;2023-06-14T05:02:40;5.80;;;3.50;;
60610;SDS011;46439;51.164;13.572;2023-06-14T05:05:09;8.20;;;3.50;;
60610;SDS011;46439;51.164;13.572;2023-06-14T05:07:37;4.80;;;3.40;;
60610;SDS011;46439;51.164;13.572;2023-06-14T05:10:07;5.40;;;3.50;;
60610;SDS011;46439;51.164;13.572;2023-06-14T05:12:37;4.60;;;3.20;;
60610;SDS011;46439;51.164;13.572;2023-06-14T05:15:06;4.30;;;3.40;;
60610;SDS011;46439;51.164;13.572;2023-06-14T05:17:37;7.50;;;3.50;;
60610;SDS011;46439;51.164;13.572;2023-06-14T05:20:08;4.60;;;3.80;;
60610;SDS011;46439;51.164;13.572;2023-06-14T05:22:36;5.40;;;3.70;;
60610;SDS011;46439;51.164;13.572;2023-06-14T05:25:06;5.60;;;3.90;;
60610;SDS011;46439;51.164;13.572;2023-06-14T05:27:35;6.20;;;4.00;;
60610;SDS011;46439;51.164;13.572;2023-06-14T05:30:04;5.10;;;3.60;;
60610;SDS011;46439;51.164;13.572;2023-06-14T05:32:34;6.30;;;3.80;;
60610;SDS011;46439;51.164;13.572;2023-06-14T05:35:03;4.60;;;3.80;;
60610;SDS011;46439;51.164;13.572;2023-06-14T05:37:33;5.80;;;3.60;;
60610;SDS011;46439;51.164;13.572;2023-06-14T05:40:01;4.90;;;3.70;;
60610;SDS011;46439;51.164;13.572;2023-06-14T05:42:35;6.50;;;4.00;;
60610;SDS011;46439;51.164;13.572;2023-06-14T05:45:05;5.40;;;3.90;;
60610;SDS011;46439;51.164;13.572;2023-06-14T05:47:34;4.30;;;3.60;;
60610;SDS011;46439;51.164;13.572;2023-06-14T05:50:03;5.10;;;3.80;;
60610;SDS011;46439;51.164;13.572;2023-06-14T05:52:33;5.70;;;4.00;;
60610;SDS011;46439;51.164;13.572;2023-06-14T05:55:04;5.90;;;3.40;;
60610;SDS011;46439;51.164;13.572;2023-06-14T05:57:33;4.50;;;3.90;;
60610;SDS011;46439;51.164;13.572;2023-06-14T06:00:02;6.20;;;3.90;;
60610;SDS011;46439;51.164;13.572;2023-06-14T06:02:37;8.00;;;3.50;;
60610;SDS011;46439;51.164;13.572;2023-06-14T06:05:06;5.60;;;3.50;;
60610;SDS011;46439;51.164;13.572;2023-06-14T06:07:35;4.20;;;3.50;;
60610;SDS011;46439;51.164;13.572;2023-06-14T06:10:05;4.20;;;3.00;;
60610;SDS011;46439;51.164;13.572;2023-06-14T06:12:34;6.80;;;3.70;;
60610;SDS011;46439;51.164;13.572;2023-06-14T06:15:03;7.10;;;3.40;;
60610;SDS011;46439;51.164;13.572;2023-06-14T06:17:33;5.10;;;3.50;;
60610;SDS011;46439;51.164;13.572;2023-06-14T06:20:02;4.30;;;3.50;;
60610;SDS011;46439;51.164;13.572;2023-06-14T06:22:33;4.00;;;3.40;;
60610;SDS011;46439;51.164;13.572;2023-06-14T06:25:01;3.90;;;3.50;;
60610;SDS011;46439;51.164;13.572;2023-06-14T06:27:30;5.40;;;3.70;;
60610;SDS011;46439;51.164;13.572;2023-06-14T06:29:59;4.80;;;3.60;;
60610;SDS011;46439;51.164;13.572;2023-06-14T06:32:28;5.50;;;3.60;;
60610;SDS011;46439;51.164;13.572;2023-06-14T06:34:56;7.80;;;3.40;;
60610;SDS011;46439;51.164;13.572;2023-06-14T06:37:26;4.60;;;3.50;;
60610;SDS011;46439;51.164;13.572;2023-06-14T06:39:54;5.10;;;3.50;;
60610;SDS011;46439;51.164;13.572;2023-06-14T06:42:23;4.20;;;3.00;;
60610;SDS011;46439;51.164;13.572;2023-06-14T06:44:52;7.10;;;3.50;;
60610;SDS011;46439;51.164;13.572;2023-06-14T06:47:21;6.40;;;3.60;;
60610;SDS011;46439;51.164;13.572;2023-06-14T06:49:50;4.90;;;3.10;;
60610;SDS011;46439;51.164;13.572;2023-06-14T06:52:19;6.60;;;3.40;;
60610;SDS011;46439;51.164;13.572;2023-06-14T06:54:47;5.00;;;3.20;;
60610;SDS011;46439;51.164;13.572;2023-06-14T06:57:17;3.30;;;3.00;;
60610;SDS011;46439;51.164;13.572;2023-06-14T06:59:46;5.20;;;3.50;;
60610;SDS011;46439;51.164;13.572;2023-06-14T07:02:16;6.20;;;3.20;;
60610;SDS011;46439;51.164;13.572;2023-06-14T07:04:44;3.80;;;3.10;;
60610;SDS011;46439;51.164;13.572;2023-06-14T07:07:13;6.20;;;3.10;;
60610;SDS011;46439;51.164;13.572;2023-06-14T07:09:42;4.00;;;2.90;;
60610;SDS011;46439;51.164;13.572;2023-06-14T07:12:11;4.60;;;3.20;;
60610;SDS011;46439;51.164;13.572;2023-06-14T07:14:39;3.80;;;2.90;;
60610;SDS011;46439;51.164;13.572;2023-06-14T07:17:08;3.50;;;3.00;;
60610;SDS011;46439;51.164;13.572;2023-06-14T07:19:36;3.00;;;2.70;;
60610;SDS011;46439;51.164;13.572;2023-06-14T07:22:05;4.20;;;2.80;;
60610;SDS011;46439;51.164;13.572;2023-06-14T07:24:36;4.10;;;3.10;;
60610;SDS011;46439;51.164;13.572;2023-06-14T07:27:12;3.90;;;2.80;;
60610;SDS011;46439;51.164;13.572;2023-06-14T07:29:45;4.60;;;3.10;;
60610;SDS011;46439;51.164;13.572;2023-06-14T07:32:21;3.60;;;2.70;;
60610;SDS011;46439;51.164;13.572;2023-06-14T07:34:58;4.60;;;2.80;;
60610;SDS011;46439;51.164;13.572;2023-06-14T07:37:26;3.00;;;2.60;;
60610;SDS011;46439;51.164;13.572;2023-06-14T07:39:55;2.80;;;2.40;;
60610;SDS011;46439;51.164;13.572;2023-06-14T07:42:23;3.80;;;2.50;;
60610;SDS011;46439;51.164;13.572;2023-06-14T07:44:52;3.60;;;2.80;;
60610;SDS011;46439;51.164;13.572;2023-06-14T07:47:21;4.10;;;3.00;;
60610;SDS011;46439;51.164;13.572;2023-06-14T07:49:49;3.40;;;2.80;;
60610;SDS011;46439;51.164;13.572;2023-06-14T07:52:18;3.00;;;2.60;;
60610;SDS011;46439;51.164;13.572;2023-06-14T07:54:46;5.50;;;2.60;;
60610;SDS011;46439;51.164;13.572;2023-06-14T07:57:15;6.30;;;2.80;;
60610;SDS011;46439;51.164;13.572;2023-06-14T07:59:46;4.70;;;2.60;;
60610;SDS011;46439;51.164;13.572;2023-06-14T08:02:15;3.00;;;2.50;;
60610;SDS011;46439;51.164;13.572;2023-06-14T08:04:44;3.30;;;2.60;;
60610;SDS011;46439;51.164;13.572;2023-06-14T08:07:15;2.90;;;2.40;;
60610;SDS011;46439;51.164;13.572;2023-06-14T08:09:43;5.40;;;2.50;;
60610;SDS011;46439;51.164;13.572;2023-06-14T08:12:12;3.00;;;2.40;;
60610;SDS011;46439;51.164;13.572;2023-06-14T08:14:41;3.60;;;2.30;;
60610;SDS011;46439;51.164;13.572;2023-06-14T08:17:10;3.50;;;2.30;;
60610;SDS011;46439;51.164;13.572;2023-06-14T08:19:39;6.00;;;2.70;;
60610;SDS011;46439;51.164;13.572;2023-06-14T08:22:07;4.00;;;2.60;;
60610;SDS011;46439;51.164;13.572;2023-06-14T08:24:38;4.90;;;2.50;;
60610;SDS011;46439;51.164;13.572;2023-06-14T08:27:07;4.50;;;2.60;;
60610;SDS011;46439;51.164;13.572;2023-06-14T08:29:35;2.90;;;2.10;;
60610;SDS011;46439;51.164;13.572;2023-06-14T08:32:07;2.40;;;2.20;;
60610;SDS011;46439;51.164;13.572;2023-06-14T08:34:36;1.90;;;1.80;;
60610;SDS011;46439;51.164;13.572;2023-06-14T08:37:05;3.30;;;2.10;;
60610;SDS011;46439;51.164;13.572;2023-06-14T08:39:34;4.50;;;2.30;;
60610;SDS011;46439;51.164;13.572;2023-06-14T08:42:04;3.80;;;2.50;;
60610;SDS011;46439;51.164;13.572;2023-06-14T08:44:35;3.40;;;2.40;;
60610;SDS011;46439;51.164;13.572;2023-06-14T08:47:05;3.30;;;2.20;;
60610;SDS011;46439;51.164;13.572;2023-06-14T08:49:37;4.00;;;2.20;;
60610;SDS011;46439;51.164;13.572;2023-06-14T08:52:07;2.60;;;2.40;;
60610;SDS011;46439;51.164;13.572;2023-06-14T08:54:39;2.50;;;2.30;;
60610;SDS011;46439;51.164;13.572;2023-06-14T08:57:11;2.80;;;2.20;;
60610;SDS011;46439;51.164;13.572;2023-06-14T08:59:44;4.90;;;2.30;;
60610;SDS011;46439;51.164;13.572;2023-06-14T09:02:19;2.20;;;1.90;;
60610;SDS011;46439;51.164;13.572;2023-06-14T09:04:48;2.50;;;2.00;;
60610;SDS011;46439;51.164;13.572;2023-06-14T09:07:17;2.60;;;2.00;;
60610;SDS011;46439;51.164;13.572;2023-06-14T09:09:46;3.80;;;1.80;;
60610;SDS011;46439;51.164;13.572;2023-06-14T09:12:14;2.90;;;2.30;;
60610;SDS011;46439;51.164;13.572;2023-06-14T09:14:43;3.10;;;2.30;;
60610;SDS011;46439;51.164;13.572;2023-06-14T09:17:14;4.50;;;2.30;;
60610;SDS011;46439;51.164;13.572;2023-06-14T09:19:43;2.30;;;2.10;;
60610;SDS011;46439;51.164;13.572;2023-06-14T09:22:13;2.70;;;2.50;;
60610;SDS011;46439;51.164;13.572;2023-06-14T09:24:44;4.30;;;2.70;;
60610;SDS011;46439;51.164;13.572;2023-06-14T09:27:16;3.40;;;2.80;;
60610;SDS011;46439;51.164;13.572;2023-06-14T09:29:44;3.90;;;2.70;;
60610;SDS011;46439;51.164;13.572;2023-06-14T09:32:13;3.20;;;2.60;;
60610;SDS011;46439;51.164;13.572;2023-06-14T09:34:41;4.30;;;3.10;;
60610;SDS011;46439;51.164;13.572;2023-06-14T09:37:10;3.10;;;2.70;;
60610;SDS011;46439;51.164;13.572;2023-06-14T09:39:49;3.00;;;2.80;;
60610;SDS011;46439;51.164;13.572;2023-06-14T09:42:18;2.90;;;2.60;;
60610;SDS011;46439;51.164;13.572;2023-06-14T09:44:47;2.90;;;2.40;;
60610;SDS011;46439;51.164;13.572;2023-06-14T09:47:16;4.20;;;2.20;;
60610;SDS011;46439;51.164;13.572;2023-06-14T09:49:45;3.70;;;2.30;;
60610;SDS011;46439;51.164;13.572;2023-06-14T09:52:15;2.90;;;2.20;;
60610;SDS011;46439;51.164;13.572;2023-06-14T09:54:45;2.50;;;2.30;;
60610;SDS011;46439;51.164;13.572;2023-06-14T09:57:16;2.60;;;2.40;;
60610;SDS011;46439;51.164;13.572;2023-06-14T09:59:47;3.60;;;2.20;;
60610;SDS011;46439;51.164;13.572;2023-06-14T10:02:21;5.00;;;2.20;;
60610;SDS011;46439;51.164;13.572;2023-06-14T10:04:53;2.60;;;2.40;;
60610;SDS011;46439;51.164;13.572;2023-06-14T10:07:27;2.40;;;2.20;;
60610;SDS011;46439;51.164;13.572;2023-06-14T10:10:00;4.60;;;2.30;;
60610;SDS011;46439;51.164;13.572;2023-06-14T10:12:29;2.40;;;2.20;;
60610;SDS011;46439;51.164;13.572;2023-06-14T10:14:58;3.40;;;2.50;;
60610;SDS011;46439;51.164;13.572;2023-06-14T10:17:30;3.80;;;2.50;;
60610;SDS011;46439;51.164;13.572;2023-06-14T10:20:14;2.90;;;2.30;;
60610;SDS011;46439;51.164;13.572;2023-06-14T10:22:53;3.00;;;2.50;;
60610;SDS011;46439;51.164;13.572;2023-06-14T10:25:29;2.70;;;2.50;;
60610;SDS011;46439;51.164;13.572;2023-06-14T10:28:05;12.40;;;2.90;;
60610;SDS011;46439;51.164;13.572;2023-06-14T10:31:04;2.90;;;2.40;;
60610;SDS011;46439;51.164;13.572;2023-06-14T10:33:34;3.30;;;2.60;;
60610;SDS011;46439;51.164;13.572;2023-06-14T10:36:09;5.80;;;2.80;;
60610;SDS011;46439;51.164;13.572;2023-06-14T10:39:07;3.30;;;2.50;;
60610;SDS011;46439;51.164;13.572;2023-06-14T10:41:38;2.70;;;2.50;;
60610;SDS011;46439;51.164;13.572;2023-06-14T10:47:26;4.00;;;2.60;;
60610;SDS011;46439;51.164;13.572;2023-06-14T10:49:55;3.70;;;2.70;;
60610;SDS011;46439;51.164;13.572;2023-06-14T10:52:32;3.80;;;2.80;;
60610;SDS011;46439;51.164;13.572;2023-06-14T10:55:05;4.40;;;2.60;;
60610;SDS011;46439;51.164;13.572;2023-06-14T10:57:42;3.60;;;2.70;;
60610;SDS011;46439;51.164;13.572;2023-06-14T11:00:17;3.00;;;2.50;;
60610;SDS011;46439;51.164;13.572;2023-06-14T11:02:56;2.80;;;2.60;;
60610;SDS011;46439;51.164;13.572;2023-06-14T11:05:51;4.10;;;3.20;;
60610;SDS011;46439;51.164;13.572;2023-06-14T11:11:31;2.50;;;2.30;;
60610;SDS011;46439;51.164;13.572;2023-06-14T11:14:01;2.80;;;2.40;;
60610;SDS011;46439;51.164;13.572;2023-06-14T11:16:29;2.40;;;2.20;;
60610;SDS011;46439;51.164;13.572;2023-06-14T11:19:01;3.00;;;2.60;;
60610;SDS011;46439;51.164;13.572;2023-06-14T11:21:31;4.70;;;2.90;;
60610;SDS011;46439;51.164;13.572;2023-06-14T11:24:00;3.10;;;2.60;;
60610;SDS011;46439;51.164;13.572;2023-06-14T11:26:30;3.10;;;2.70;;
60610;SDS011;46439;51.164;13.572;2023-06-14T11:31:28;4.00;;;2.60;;
60610;SDS011;46439;51.164;13.572;2023-06-14T11:33:57;4.30;;;2.50;;
60610;SDS011;46439;51.164;13.572;2023-06-14T11:36:27;3.00;;;2.60;;
60610;SDS011;46439;51.164;13.572;2023-06-14T11:39:00;3.20;;;2.70;;
60610;SDS011;46439;51.164;13.572;2023-06-14T11:41:39;3.30;;;2.90;;
60610;SDS011;46439;51.164;13.572;2023-06-14T11:44:09;3.00;;;2.70;;
60610;SDS011;46439;51.164;13.572;2023-06-14T11:46:38;5.70;;;2.80;;
60610;SDS011;46439;51.164;13.572;2023-06-14T11:49:07;6.10;;;2.80;;
60610;SDS011;46439;51.164;13.572;2023-06-14T11:51:36;5.80;;;3.00;;
60610;SDS011;46439;51.164;13.572;2023-06-14T11:54:05;2.60;;;2.40;;
60610;SDS011;46439;51.164;13.572;2023-06-14T11:56:36;5.30;;;2.80;;
60610;SDS011;46439;51.164;13.572;2023-06-14T11:59:05;3.00;;;2.70;;
60610;SDS011;46439;51.164;13.572;2023-06-14T12:01:36;3.80;;;2.80;;
60610;SDS011;46439;51.164;13.572;2023-06-14T12:04:05;3.60;;;2.50;;
60610;SDS011;46439;51.164;13.572;2023-06-14T12:06:34;3.10;;;2.50;;
60610;SDS011;46439;51.164;13.572;2023-06-14T12:09:06;3.20;;;2.40;;
60610;SDS011;46439;51.164;13.572;2023-06-14T12:11:39;3.20;;;2.60;;
60610;SDS011;46439;51.164;13.572;2023-06-14T12:14:09;3.80;;;2.80;;
60610;SDS011;46439;51.164;13.572;2023-06-14T12:16:38;6.90;;;3.10;;
60610;SDS011;46439;51.164;13.572;2023-06-14T12:19:11;4.50;;;2.70;;
60610;SDS011;46439;51.164;13.572;2023-06-14T12:21:41;3.20;;;2.90;;
60610;SDS011;46439;51.164;13.572;2023-06-14T12:24:15;4.10;;;2.70;;
60610;SDS011;46439;51.164;13.572;2023-06-14T12:26:43;7.40;;;2.80;;
60610;SDS011;46439;51.164;13.572;2023-06-14T12:29:13;4.00;;;3.10;;
60610;SDS011;46439;51.164;13.572;2023-06-14T12:31:41;3.40;;;3.10;;
60610;SDS011;46439;51.164;13.572;2023-06-14T12:34:10;4.50;;;3.00;;
60610;SDS011;46439;51.164;13.572;2023-06-14T12:36:39;6.20;;;3.10;;
60610;SDS011;46439;51.164;13.572;2023-06-14T12:39:08;4.20;;;2.90;;
60610;SDS011;46439;51.164;13.572;2023-06-14T12:41:36;5.40;;;3.30;;
60610;SDS011;46439;51.164;13.572;2023-06-14T12:44:07;6.30;;;3.00;;
60610;SDS011;46439;51.164;13.572;2023-06-14T12:46:36;3.60;;;3.20;;
60610;SDS011;46439;51.164;13.572;2023-06-14T12:49:09;3.60;;;3.10;;
60610;SDS011;46439;51.164;13.572;2023-06-14T12:51:38;3.90;;;3.00;;
60610;SDS011;46439;51.164;13.572;2023-06-14T12:54:07;4.30;;;3.40;;
60610;SDS011;46439;51.164;13.572;2023-06-14T12:56:35;4.30;;;3.10;;
60610;SDS011;46439;51.164;13.572;2023-06-14T12:59:04;5.60;;;2.90;;
60610;SDS011;46439;51.164;13.572;2023-06-14T13:01:33;3.50;;;3.00;;
60610;SDS011;46439;51.164;13.572;2023-06-14T13:04:01;4.20;;;3.20;;
60610;SDS011;46439;51.164;13.572;2023-06-14T13:06:30;5.90;;;3.10;;
60610;SDS011;46439;51.164;13.572;2023-06-14T13:08:59;3.90;;;3.10;;
60610;SDS011;46439;51.164;13.572;2023-06-14T13:11:30;5.00;;;2.90;;
60610;SDS011;46439;51.164;13.572;2023-06-14T13:13:58;5.30;;;3.50;;
60610;SDS011;46439;51.164;13.572;2023-06-14T13:16:27;3.60;;;3.20;;
60610;SDS011;46439;51.164;13.572;2023-06-14T13:18:55;5.80;;;3.00;;
60610;SDS011;46439;51.164;13.572;2023-06-14T13:21:24;6.00;;;3.30;;
60610;SDS011;46439;51.164;13.572;2023-06-14T13:23:52;3.00;;;2.70;;
60610;SDS011;46439;51.164;13.572;2023-06-14T13:26:21;3.80;;;2.80;;
60610;SDS011;46439;51.164;13.572;2023-06-14T13:28:50;4.30;;;2.40;;
60610;SDS011;46439;51.164;13.572;2023-06-14T13:31:19;3.40;;;2.60;;
60610;SDS011;46439;51.164;13.572;2023-06-14T13:33:48;4.70;;;2.70;;
60610;SDS011;46439;51.164;13.572;2023-06-14T13:36:16;5.20;;;2.50;;
60610;SDS011;46439;51.164;13.572;2023-06-14T13:38:45;3.00;;;2.40;;
60610;SDS011;46439;51.164;13.572;2023-06-14T13:41:13;2.40;;;2.20;;
60610;SDS011;46439;51.164;13.572;2023-06-14T13:43:42;2.30;;;2.10;;
60610;SDS011;46439;51.164;13.572;2023-06-14T13:46:11;3.20;;;2.00;;
60610;SDS011;46439;51.164;13.572;2023-06-14T13:48:39;2.30;;;2.10;;
60610;SDS011;46439;51.164;13.572;2023-06-14T13:51:07;4.50;;;2.40;;
60610;SDS011;46439;51.164;13.572;2023-06-14T13:53:38;5.00;;;2.60;;
60610;SDS011;46439;51.164;13.572;2023-06-14T13:56:06;3.40;;;2.40;;
60610;SDS011;46439;51.164;13.572;2023-06-14T13:58:35;3.40;;;2.40;;
60610;SDS011;46439;51.164;13.572;2023-06-14T14:01:04;3.10;;;2.60;;
60610;SDS011;46439;51.164;13.572;2023-06-14T14:03:33;3.90;;;2.30;;
60610;SDS011;46439;51.164;13.572;2023-06-14T14:06:02;2.90;;;2.10;;
60610;SDS011;46439;51.164;13.572;2023-06-14T14:08:34;4.80;;;2.50;;
60610;SDS011;46439;51.164;13.572;2023-06-14T14:11:04;3.80;;;2.80;;
60610;SDS011;46439;51.164;13.572;2023-06-14T14:13:34;5.10;;;2.50;;
60610;SDS011;46439;51.164;13.572;2023-06-14T14:16:07;3.70;;;2.40;;
60610;SDS011;46439;51.164;13.572;2023-06-14T14:18:37;2.40;;;2.20;;
60610;SDS011;46439;51.164;13.572;2023-06-14T14:21:06;5.50;;;2.40;;
60610;SDS011;46439;51.164;13.572;2023-06-14T14:23:36;3.30;;;2.40;;
60610;SDS011;46439;51.164;13.572;2023-06-14T14:26:05;2.60;;;2.40;;
60610;SDS011;46439;51.164;13.572;2023-06-14T14:28:33;2.70;;;2.20;;
60610;SDS011;46439;51.164;13.572;2023-06-14T14:31:02;2.60;;;2.20;;
60610;SDS011;46439;51.164;13.572;2023-06-14T14:33:31;2.90;;;2.50;;
60610;SDS011;46439;51.164;13.572;2023-06-14T14:36:01;4.80;;;2.40;;
60610;SDS011;46439;51.164;13.572;2023-06-14T14:38:32;3.50;;;2.00;;
60610;SDS011;46439;51.164;13.572;2023-06-14T14:41:01;3.00;;;2.20;;
60610;SDS011;46439;51.164;13.572;2023-06-14T14:43:29;2.40;;;2.10;;
60610;SDS011;46439;51.164;13.572;2023-06-14T14:45:59;3.20;;;2.10;;
60610;SDS011;46439;51.164;13.572;2023-06-14T14:48:27;3.20;;;2.20;;
60610;SDS011;46439;51.164;13.572;2023-06-14T14:50:56;2.00;;;1.90;;
60610;SDS011;46439;51.164;13.572;2023-06-14T14:53:24;3.00;;;2.20;;
60610;SDS011;46439;51.164;13.572;2023-06-14T14:55:53;2.30;;;2.10;;
60610;SDS011;46439;51.164;13.572;2023-06-14T14:58:22;3.30;;;2.40;;
60610;SDS011;46439;51.164;13.572;2023-06-14T15:00:50;3.10;;;2.10;;